Time;durP1;ratioP1;P1;durP2;ratioP2;P2;SDS_P1;SDS_P2;PMS_P1;PMS_P2;Temp;Humidity;BMP_temperature;BMP_pressure;BME280_temperature;BME280_humidity;BME280_pressure;Samples;Min_cycle;Max_cycle;Signal;HPM_P1;HPM_P2
2022/12/14 00:01:10;;;;;;;3.33;2.88;;;9.20;99.90;;;;;;5085630;28;20029;-83
2022/12/14 00:03:36;;;;;;;3.28;2.97;;;9.30;99.90;;;;;;5070923;28;20078;-84
2022/12/14 00:06:29;;;;;;;3.15;2.70;;;9.20;99.90;;;;;;5069044;28;20013;-83
2022/12/14 00:08:57;;;;;;;2.67;2.45;;;9.20;99.90;;;;;;5065698;28;20071;-83
2022/12/14 00:11:23;;;;;;;2.58;2.38;;;9.20;99.90;;;;;;5070709;28;20513;-83
2022/12/14 00:13:58;;;;;;;3.28;2.65;;;9.20;99.90;;;;;;5070842;28;20054;-82
2022/12/14 00:16:26;;;;;;;3.78;2.80;;;9.30;99.90;;;;;;5070348;28;20028;-83
2022/12/14 00:18:54;;;;;;;3.08;2.70;;;9.30;99.90;;;;;;5069960;28;20028;-83
2022/12/14 00:21:20;;;;;;;3.25;2.33;;;9.30;99.90;;;;;;5070893;28;20028;-83
2022/12/14 00:23:49;;;;;;;2.90;2.60;;;9.30;99.90;;;;;;5070314;28;20114;-84
2022/12/14 00:26:19;;;;;;;2.70;2.47;;;9.30;99.90;;;;;;5070363;28;20606;-84
2022/12/14 00:28:46;;;;;;;2.47;2.28;;;9.30;99.90;;;;;;5069927;28;20050;-84
2022/12/14 00:31:12;;;;;;;3.00;2.75;;;9.30;99.90;;;;;;5068980;28;20127;-84
2022/12/14 00:33:38;;;;;;;2.78;2.17;;;9.30;99.90;;;;;;5069076;28;20494;-83
2022/12/14 00:36:06;;;;;;;2.58;2.35;;;9.30;99.90;;;;;;5070308;28;20024;-84
2022/12/14 00:38:31;;;;;;;2.70;2.50;;;9.20;99.90;;;;;;5069570;28;20036;-84
2022/12/14 00:40:57;;;;;;;2.13;2.03;;;9.20;99.90;;;;;;5070491;28;20017;-84
2022/12/14 00:43:23;;;;;;;2.40;2.20;;;9.20;99.90;;;;;;5069841;28;20551;-84
2022/12/14 00:45:49;;;;;;;2.58;2.00;;;9.20;99.90;;;;;;5070409;28;20126;-84
2022/12/14 00:48:17;;;;;;;2.30;1.95;;;9.20;99.90;;;;;;5070214;28;20525;-85
2022/12/14 00:50:45;;;;;;;3.38;2.35;;;9.20;99.90;;;;;;5069731;28;20047;-84
2022/12/14 00:53:10;;;;;;;2.70;2.50;;;9.20;99.90;;;;;;5069612;28;20029;-84
2022/12/14 00:55:41;;;;;;;2.30;2.10;;;9.30;99.90;;;;;;5070337;28;20028;-84
2022/12/14 00:58:09;;;;;;;1.98;1.77;;;9.30;99.90;;;;;;5070379;28;20021;-85
2022/12/14 01:00:34;;;;;;;2.90;1.88;;;9.20;99.90;;;;;;5085629;28;20032;-84
2022/12/14 01:03:00;;;;;;;2.47;1.83;;;9.20;99.90;;;;;;5072371;28;20290;-85
2022/12/14 01:05:29;;;;;;;2.20;2.00;;;9.20;99.90;;;;;;5073636;28;20510;-84
2022/12/14 01:07:55;;;;;;;1.77;1.65;;;9.20;99.90;;;;;;5073773;28;20473;-84
2022/12/14 01:10:21;;;;;;;3.05;1.83;;;9.10;99.90;;;;;;5088821;28;20078;-85
2022/12/14 01:12:47;;;;;;;1.88;1.77;;;9.10;99.90;;;;;;5073016;28;20100;-85
2022/12/14 01:15:13;;;;;;;1.80;1.67;;;9.10;99.90;;;;;;5073395;28;20723;-85
2022/12/14 01:17:39;;;;;;;2.13;1.92;;;9.10;99.90;;;;;;5071569;28;20031;-84
2022/12/14 01:20:05;;;;;;;1.90;1.70;;;9.10;99.90;;;;;;5073315;28;20072;-85
2022/12/14 01:22:31;;;;;;;2.65;2.20;;;9.10;99.90;;;;;;5053045;28;20021;-85
2022/12/14 01:24:57;;;;;;;1.90;1.80;;;9.10;99.90;;;;;;5052794;28;20469;-84
2022/12/14 01:27:23;;;;;;;2.10;1.80;;;9.10;99.90;;;;;;5053335;28;20046;-84
2022/12/14 01:29:48;;;;;;;1.88;1.67;;;9.00;99.90;;;;;;5068320;28;20409;-84
2022/12/14 01:32:14;;;;;;;1.65;1.55;;;9.10;99.90;;;;;;5053005;28;20052;-84
2022/12/14 01:34:40;;;;;;;2.03;1.80;;;9.00;99.90;;;;;;5052539;28;20501;-84
2022/12/14 01:37:05;;;;;;;1.98;1.70;;;9.00;99.90;;;;;;5053501;28;20074;-84
2022/12/14 01:39:31;;;;;;;1.95;1.77;;;9.00;99.90;;;;;;5068212;28;20447;-84
2022/12/14 01:41:58;;;;;;;1.73;1.52;;;9.10;99.90;;;;;;5055079;28;20025;-85
2022/12/14 01:44:23;;;;;;;2.70;1.83;;;9.10;99.90;;;;;;5071815;28;20044;-84
2022/12/14 01:46:58;;;;;;;1.48;1.38;;;9.10;99.90;;;;;;5073279;28;20059;-84
2022/12/14 01:49:33;;;;;;;1.48;1.38;;;9.10;99.90;;;;;;5072956;28;20119;-84
2022/12/14 01:52:17;;;;;;;1.38;1.27;;;9.10;99.90;;;;;;5072541;28;20104;-84
2022/12/14 01:54:52;;;;;;;1.50;1.33;;;9.10;99.90;;;;;;5072938;28;20024;-85
2022/12/14 01:57:24;;;;;;;1.35;1.25;;;9.10;99.90;;;;;;5071248;28;20064;-84
2022/12/14 01:59:50;;;;;;;;;;;9.00;99.90;;;;;;5087699;28;20090;-84
2022/12/14 02:02:17;;;;;;;1.40;1.15;;;9.00;99.90;;;;;;5072472;28;20368;-84
2022/12/14 02:04:49;;;;;;;1.50;1.40;;;8.90;99.90;;;;;;5070839;28;20052;-85
2022/12/14 02:07:16;;;;;;;1.00;1.00;;;8.90;99.90;;;;;;5072696;28;20016;-85
2022/12/14 02:09:45;;;;;;;1.20;1.17;;;8.90;99.90;;;;;;5071957;28;20115;-84
2022/12/14 02:12:18;;;;;;;1.40;1.30;;;9.00;99.90;;;;;;5072256;28;20051;-84
2022/12/14 02:14:45;;;;;;;1.58;1.30;;;9.00;99.90;;;;;;5071908;28;20021;-85
2022/12/14 02:17:12;;;;;;;1.70;1.50;;;8.90;99.90;;;;;;5071059;28;20047;-84
2022/12/14 02:19:40;;;;;;;1.33;1.23;;;9.00;99.90;;;;;;5071283;28;20155;-84
2022/12/14 02:22:25;;;;;;;2.65;1.02;;;9.00;99.90;;;;;;5072236;28;20024;-84
2022/12/14 02:25:05;;;;;;;1.00;0.90;;;8.90;99.90;;;;;;5070831;28;20074;-84
2022/12/14 02:28:06;;;;;;;1.30;1.20;;;8.90;99.90;;;;;;5072105;28;20045;-85
2022/12/14 02:30:38;;;;;;;1.67;1.50;;;8.90;99.90;;;;;;5009642;28;20104;-84
2022/12/14 02:33:22;;;;;;;1.50;1.40;;;8.90;99.90;;;;;;4993391;28;20185;-85
2022/12/14 02:35:54;;;;;;;1.77;1.40;;;8.90;99.90;;;;;;5009374;28;20038;-84
2022/12/14 02:38:31;;;;;;;1.27;1.10;;;8.90;99.90;;;;;;5009839;28;20044;-84
2022/12/14 02:41:03;;;;;;;1.83;1.45;;;8.90;99.90;;;;;;5009895;28;20053;-84
2022/12/14 02:43:31;;;;;;;;;;;8.80;99.90;;;;;;5009820;28;20079;-84
2022/12/14 02:46:05;;;;;;;1.40;1.30;;;8.80;99.90;;;;;;5009338;28;20417;-85
2022/12/14 02:49:13;;;;;;;1.95;1.85;;;8.80;99.90;;;;;;5009707;28;20042;-84
2022/12/14 02:51:56;;;;;;;1.98;1.40;;;8.80;99.90;;;;;;5009295;28;20026;-84
2022/12/14 02:54:28;;;;;;;2.03;1.85;;;8.80;99.90;;;;;;5009433;28;20054;-83
2022/12/14 02:57:10;;;;;;;2.05;1.63;;;8.80;99.90;;;;;;4988815;28;20100;-84
2022/12/14 02:59:36;;;;;;;1.80;1.60;;;8.80;99.90;;;;;;5009701;28;20575;-83
2022/12/14 03:02:03;;;;;;;2.03;1.65;;;8.80;99.90;;;;;;5009785;28;20042;-83
2022/12/14 03:04:28;;;;;;;2.13;1.92;;;8.80;99.90;;;;;;5009582;28;20065;-83
2022/12/14 03:07:03;;;;;;;1.58;1.48;;;8.80;99.90;;;;;;5023100;28;20037;-83
2022/12/14 03:09:30;;;;;;;1.77;1.67;;;8.80;99.90;;;;;;5066623;28;20025;-84
2022/12/14 03:12:08;;;;;;;2.05;1.50;;;8.80;99.90;;;;;;5051631;28;20059;-84
2022/12/14 03:14:41;;;;;;;1.60;1.42;;;8.70;99.90;;;;;;5051832;28;20032;-83
2022/12/14 03:17:13;;;;;;;1.85;1.75;;;8.80;99.90;;;;;;5051326;28;20059;-83
2022/12/14 03:19:43;;;;;;;1.58;1.40;;;8.80;99.90;;;;;;5063475;28;20083;-83
2022/12/14 03:22:33;;;;;;;1.70;1.60;;;8.60;99.90;;;;;;5071113;28;20058;-83
2022/12/14 03:25:09;;;;;;;1.80;1.70;;;8.80;99.90;;;;;;5070290;28;20106;-83
2022/12/14 03:27:47;;;;;;;2.05;1.80;;;8.80;99.90;;;;;;5071188;28;20135;-83
2022/12/14 03:30:16;;;;;;;2.10;1.73;;;8.80;99.90;;;;;;5071262;28;20021;-83
2022/12/14 03:32:56;;;;;;;1.90;1.70;;;8.80;99.90;;;;;;5071273;28;20024;-83
2022/12/14 03:35:27;;;;;;;2.78;2.13;;;8.70;99.90;;;;;;5086752;28;20024;-83
2022/12/14 03:38:15;;;;;;;2.22;2.03;;;8.80;99.90;;;;;;5071430;28;20036;-83
2022/12/14 03:41:21;;;;;;;2.10;1.90;;;8.70;99.90;;;;;;5070732;28;20263;-83
2022/12/14 03:44:19;;;;;;;2.55;2.25;;;8.80;99.90;;;;;;5053848;28;20024;-83
2022/12/14 03:47:06;;;;;;;2.38;2.10;;;8.80;99.90;;;;;;5048892;28;20060;-83
2022/12/14 03:49:45;;;;;;;3.08;2.10;;;8.70;99.90;;;;;;5048841;28;20061;-83
2022/12/14 03:52:36;;;;;;;2.22;2.10;;;8.80;99.90;;;;;;5048668;28;20037;-83
2022/12/14 03:55:10;;;;;;;2.67;2.00;;;8.70;99.90;;;;;;5048278;28;20498;-83
2022/12/14 03:57:55;;;;;;;2.53;2.10;;;8.80;99.90;;;;;;5048857;28;20053;-83
2022/12/14 04:00:23;;;;;;;1.90;1.80;;;8.70;99.90;;;;;;5048207;28;20111;-83
2022/12/14 04:03:16;;;;;;;1.83;1.70;;;8.70;99.90;;;;;;5048875;28;20029;-83
2022/12/14 04:05:47;;;;;;;3.10;2.25;;;8.80;99.90;;;;;;5048550;28;20078;-83
2022/12/14 04:08:33;;;;;;;;;;;8.70;99.90;;;;;;5048714;28;20025;-83
2022/12/14 04:19:50;;;;;;;1.83;1.70;;;8.60;99.90;;;;;;5060252;28;20088;-83
2022/12/14 04:22:21;;;;;;;1.63;1.52;;;8.60;99.90;;;;;;5051403;28;20579;-83
2022/12/14 04:27:57;;;;;;;1.70;1.60;;;8.60;99.90;;;;;;5070790;28;20078;-84
2022/12/14 04:30:23;;;;;;;1.67;1.58;;;8.50;99.90;;;;;;5070509;28;20158;-83
2022/12/14 04:32:49;;;;;;;1.65;1.55;;;8.50;99.90;;;;;;5069199;28;20119;-83
2022/12/14 04:35:18;;;;;;;2.60;1.40;;;8.50;99.90;;;;;;5070602;28;20037;-83
2022/12/14 04:38:03;;;;;;;1.42;1.33;;;8.50;99.90;;;;;;5074127;28;20336;-83
2022/12/14 04:40:35;;;;;;;1.30;1.20;;;8.40;99.90;;;;;;5074352;28;20059;-84
2022/12/14 04:43:06;;;;;;;1.63;1.52;;;8.40;99.90;;;;;;5085117;28;20047;-84
2022/12/14 04:45:57;;;;;;;1.83;1.48;;;8.40;99.90;;;;;;5094558;28;20063;-84
2022/12/14 04:48:59;;;;;;;1.50;1.40;;;8.50;99.90;;;;;;5095032;28;20073;-84
2022/12/14 04:51:35;;;;;;;1.70;1.60;;;8.50;99.90;;;;;;5093179;28;20027;-84
2022/12/14 04:54:12;;;;;;;1.67;1.48;;;8.50;99.90;;;;;;5093127;28;20107;-84
2022/12/14 04:56:52;;;;;;;3.17;1.70;;;8.40;99.90;;;;;;5094221;28;20019;-84
2022/12/14 04:59:18;;;;;;;1.73;1.63;;;8.40;99.90;;;;;;5094171;28;20039;-84
2022/12/14 05:02:21;;;;;;;1.52;1.42;;;8.50;99.90;;;;;;5094260;28;20481;-84
2022/12/14 05:05:18;;;;;;;2.65;1.30;;;8.30;99.90;;;;;;5093102;28;20020;-84
2022/12/14 05:07:59;;;;;;;1.25;1.17;;;8.30;99.90;;;;;;5089423;28;20563;-84
2022/12/14 05:10:29;;;;;;;2.05;1.88;;;8.40;99.90;;;;;;5094155;28;20020;-84
2022/12/14 05:13:14;;;;;;;1.67;1.50;;;8.20;99.90;;;;;;5093959;28;20035;-84
2022/12/14 05:15:46;;;;;;;2.25;1.50;;;8.30;99.90;;;;;;5094281;28;20035;-84
2022/12/14 05:18:12;;;;;;;1.50;1.40;;;8.30;99.90;;;;;;5094109;28;20030;-84
2022/12/14 05:20:38;;;;;;;1.67;1.58;;;8.30;99.90;;;;;;5053432;28;20052;-84
2022/12/14 05:23:04;;;;;;;2.35;1.50;;;8.30;99.90;;;;;;5053443;28;20106;-84
2022/12/14 05:25:29;;;;;;;1.50;1.40;;;8.30;99.90;;;;;;5053466;28;20028;-84
2022/12/14 05:27:55;;;;;;;1.75;1.65;;;8.20;99.90;;;;;;5053797;28;20048;-84
2022/12/14 05:30:21;;;;;;;1.45;1.35;;;8.30;99.90;;;;;;5053538;28;20029;-84
2022/12/14 05:32:47;;;;;;;1.75;1.50;;;8.30;99.90;;;;;;5053877;28;20094;-84
2022/12/14 05:35:13;;;;;;;1.67;1.58;;;8.20;99.90;;;;;;5052435;28;20032;-84
2022/12/14 05:37:39;;;;;;;1.52;1.42;;;8.20;99.90;;;;;;5053323;28;20035;-84
2022/12/14 05:40:06;;;;;;;1.60;1.50;;;8.20;99.90;;;;;;5053313;28;20021;-83
2022/12/14 05:42:31;;;;;;;1.60;1.50;;;8.20;99.90;;;;;;5059940;28;20020;-83
2022/12/14 05:44:57;;;;;;;1.60;1.40;;;8.30;99.90;;;;;;5073112;28;20505;-83
2022/12/14 05:47:23;;;;;;;1.52;1.42;;;8.30;99.90;;;;;;5072594;28;20396;-83
2022/12/14 05:49:49;;;;;;;1.67;1.58;;;8.30;99.90;;;;;;5072989;28;20025;-84
2022/12/14 05:52:15;;;;;;;1.80;1.70;;;8.30;99.90;;;;;;5071535;28;20033;-84
2022/12/14 05:54:41;;;;;;;2.33;2.13;;;8.30;99.90;;;;;;5073289;28;20524;-84
2022/12/14 05:57:06;;;;;;;2.20;2.00;;;8.30;99.90;;;;;;5071335;28;20396;-84
2022/12/14 05:59:32;;;;;;;2.33;1.85;;;8.30;99.90;;;;;;5072946;28;20028;-83
2022/12/14 06:01:58;;;;;;;2.25;2.05;;;8.30;99.90;;;;;;5071425;28;20063;-84
2022/12/14 06:04:24;;;;;;;2.03;1.80;;;8.30;99.90;;;;;;5072987;28;20012;-84
2022/12/14 06:06:50;;;;;;;2.20;2.00;;;8.20;99.90;;;;;;5088433;28;20032;-84
2022/12/14 06:09:17;;;;;;;2.17;1.98;;;8.30;99.90;;;;;;5072819;28;20020;-83
2022/12/14 06:11:44;;;;;;;2.03;1.90;;;8.30;99.90;;;;;;5072450;28;20024;-83
2022/12/14 06:14:10;;;;;;;2.33;1.88;;;8.30;99.90;;;;;;5072996;28;20024;-84
2022/12/14 06:16:41;;;;;;;2.30;1.80;;;8.30;99.90;;;;;;5072387;28;20040;-83
2022/12/14 06:19:07;;;;;;;2.15;1.95;;;8.30;99.90;;;;;;5095566;28;20057;-84
2022/12/14 06:21:38;;;;;;;2.08;1.77;;;8.30;99.90;;;;;;5092657;28;20020;-84
2022/12/14 06:24:05;;;;;;;2.20;2.05;;;8.30;99.90;;;;;;5092372;28;20072;-84
2022/12/14 06:26:33;;;;;;;1.98;1.88;;;8.30;99.90;;;;;;5091139;28;20550;-85
2022/12/14 06:28:59;;;;;;;2.45;2.20;;;8.30;99.90;;;;;;5092786;28;20035;-84
2022/12/14 06:31:28;;;;;;;2.80;2.17;;;8.30;99.90;;;;;;5092523;28;20447;-84
2022/12/14 06:33:55;;;;;;;2.15;1.80;;;8.30;99.90;;;;;;5092262;28;20027;-84
2022/12/14 06:36:28;;;;;;;3.30;2.28;;;8.30;99.90;;;;;;5092614;28;20050;-84
2022/12/14 06:38:54;;;;;;;2.05;1.95;;;8.30;99.90;;;;;;5092268;28;20135;-85
2022/12/14 06:41:22;;;;;;;2.25;2.03;;;8.30;99.90;;;;;;5090820;28;20500;-84
2022/12/14 06:43:49;;;;;;;2.22;2.03;;;8.20;99.90;;;;;;5074786;28;20062;-84
2022/12/14 06:46:17;;;;;;;2.88;1.70;;;8.30;99.90;;;;;;5072142;28;20074;-84
2022/12/14 06:48:47;;;;;;;4.00;2.85;;;8.30;99.90;;;;;;5072168;28;20059;-84
2022/12/14 06:51:13;;;;;;;3.47;2.30;;;8.30;99.90;;;;;;5071842;28;20086;-84
2022/12/14 06:53:38;;;;;;;1.98;1.75;;;8.30;99.90;;;;;;5071853;28;20391;-84
2022/12/14 06:56:09;;;;;;;2.35;2.10;;;8.20;99.90;;;;;;5087591;28;20448;-84
2022/12/14 06:58:35;;;;;;;2.22;1.90;;;8.30;99.90;;;;;;5071487;28;20021;-84
2022/12/14 07:01:20;;;;;;;2.50;2.30;;;8.30;99.90;;;;;;5071364;28;20033;-83
2022/12/14 07:03:48;;;;;;;3.17;2.58;;;8.20;99.90;;;;;;5071743;28;20052;-84
2022/12/14 07:06:14;;;;;;;4.63;3.33;;;8.20;99.90;;;;;;5071660;28;20017;-84
2022/12/14 07:08:40;;;;;;;3.78;3.40;;;8.20;99.90;;;;;;5071191;28;20374;-84
2022/12/14 07:11:11;;;;;;;5.00;3.70;;;8.20;99.90;;;;;;5070311;28;20028;-84
2022/12/14 07:13:37;;;;;;;;;;;8.30;99.90;;;;;;5071527;28;20032;-84
2022/12/14 07:16:05;;;;;;;3.95;3.42;;;8.30;99.90;;;;;;5071677;28;19904;-85
2022/12/14 07:18:32;;;;;;;3.75;3.35;;;8.30;99.90;;;;;;5071184;28;20099;-85
2022/12/14 07:20:58;;;;;;;4.55;3.03;;;8.30;99.90;;;;;;5071515;28;20107;-84
2022/12/14 07:23:25;;;;;;;3.35;2.92;;;8.30;99.90;;;;;;5071536;28;20024;-84
2022/12/14 07:25:51;;;;;;;3.90;3.22;;;8.40;99.90;;;;;;5085938;28;20060;-84
2022/12/14 07:28:18;;;;;;;4.28;3.22;;;8.30;99.90;;;;;;5070882;28;20013;-84
2022/12/14 07:30:43;;;;;;;3.42;3.08;;;8.40;99.90;;;;;;5071513;28;20127;-84
2022/12/14 07:33:09;;;;;;;3.42;3.13;;;8.40;99.90;;;;;;5071183;28;20028;-84
2022/12/14 07:35:35;;;;;;;3.47;2.92;;;8.40;99.90;;;;;;5071047;28;20024;-84
2022/12/14 07:38:02;;;;;;;4.15;3.65;;;8.40;99.90;;;;;;5071239;28;20028;-84
2022/12/14 07:40:28;;;;;;;3.10;2.80;;;8.40;99.90;;;;;;5070987;28;20182;-84
2022/12/14 07:42:54;;;;;;;4.05;3.42;;;8.30;99.90;;;;;;5080842;28;20043;-83
2022/12/14 07:45:20;;;;;;;4.93;2.88;;;8.40;99.90;;;;;;5091293;28;20046;-83
2022/12/14 07:47:46;;;;;;;3.50;2.97;;;8.40;99.90;;;;;;5091248;28;20436;-83
2022/12/14 07:50:11;;;;;;;4.88;3.22;;;8.40;99.90;;;;;;5091305;28;20028;-83
2022/12/14 07:52:37;;;;;;;2.97;2.72;;;8.40;99.90;;;;;;5090862;28;20024;-83
2022/12/14 07:55:03;;;;;;;2.85;2.55;;;8.40;99.90;;;;;;5091345;28;20073;-84
2022/12/14 07:57:29;;;;;;;2.85;2.60;;;8.40;99.90;;;;;;5091583;28;20437;-84
2022/12/14 07:59:54;;;;;;;3.30;2.80;;;8.50;99.90;;;;;;5091180;28;20412;-83
2022/12/14 08:02:20;;;;;;;3.65;2.85;;;8.50;99.90;;;;;;5091669;28;20094;-83
2022/12/14 08:04:46;;;;;;;3.55;3.22;;;8.50;99.90;;;;;;5091684;28;20080;-83
2022/12/14 08:07:11;;;;;;;3.40;3.05;;;8.50;99.90;;;;;;5091787;28;20103;-83
2022/12/14 08:09:37;;;;;;;3.67;3.33;;;8.50;99.90;;;;;;5091615;28;20571;-84
2022/12/14 08:12:03;;;;;;;5.05;3.25;;;8.50;99.90;;;;;;5092537;28;20028;-83
2022/12/14 08:14:29;;;;;;;5.00;3.65;;;8.50;99.90;;;;;;5071611;28;20085;-82
2022/12/14 08:16:54;;;;;;;6.72;4.82;;;8.50;99.90;;;;;;5073892;28;20106;-82
2022/12/14 08:19:20;;;;;;;6.47;4.63;;;8.50;99.90;;;;;;5073135;28;20810;-83
2022/12/14 08:21:46;;;;;;;6.78;5.57;;;8.60;99.90;;;;;;5070669;28;20034;-81
2022/12/14 08:24:13;;;;;;;8.50;4.82;;;8.70;99.90;;;;;;5073961;28;20021;-82
2022/12/14 08:26:39;;;;;;;8.98;4.97;;;8.80;99.90;;;;;;5073782;28;20159;-81
2022/12/14 08:29:05;;;;;;;6.25;4.80;;;8.90;99.90;;;;;;5105283;28;20032;-82
2022/12/14 08:31:31;;;;;;;7.32;4.78;;;8.90;99.90;;;;;;5092862;28;20028;-83
2022/12/14 08:33:58;;;;;;;6.28;4.72;;;9.00;99.90;;;;;;5078643;28;20035;-83
2022/12/14 08:36:29;;;;;;;6.25;4.45;;;9.10;99.90;;;;;;5089927;28;20024;-81
2022/12/14 08:39:00;;;;;;;6.07;4.95;;;9.20;99.90;;;;;;5073174;28;20032;-80
2022/12/14 08:41:27;;;;;;;6.07;4.38;;;9.90;99.90;;;;;;5073189;28;20062;-81
2022/12/14 08:43:58;;;;;;;5.70;4.43;;;9.90;99.90;;;;;;5071660;28;20047;-81
2022/12/14 08:46:26;;;;;;;5.80;4.53;;;9.70;99.90;;;;;;5073105;28;20016;-81
2022/12/14 08:48:52;;;;;;;6.53;4.47;;;9.70;99.90;;;;;;5073407;28;20033;-82
2022/12/14 08:51:19;;;;;;;7.03;4.93;;;9.60;99.90;;;;;;5073160;28;20177;-82
2022/12/14 08:53:48;;;;;;;5.32;4.47;;;9.70;99.90;;;;;;5072774;28;20035;-82
2022/12/14 08:56:19;;;;;;;5.03;4.07;;;9.70;99.90;;;;;;5073126;28;20021;-82
2022/12/14 08:58:45;;;;;;;5.07;4.15;;;9.70;99.90;;;;;;5084568;28;20024;-82
2022/12/14 09:01:14;;;;;;;6.53;4.90;;;9.70;99.90;;;;;;5083786;28;20032;-82
2022/12/14 09:03:43;;;;;;;5.03;4.53;;;9.70;99.90;;;;;;5083539;28;20039;-82
2022/12/14 09:06:11;;;;;;;5.57;4.28;;;9.80;99.90;;;;;;5088301;28;20510;-81
2022/12/14 09:08:37;;;;;;;5.75;4.45;;;9.80;99.90;;;;;;5073180;28;20039;-84
2022/12/14 09:11:04;;;;;;;5.32;4.25;;;9.90;99.90;;;;;;5069132;28;20048;-84
2022/12/14 09:13:31;;;;;;;4.72;3.95;;;9.90;99.90;;;;;;5070636;28;20047;-84
2022/12/14 09:16:02;;;;;;;4.57;3.70;;;10.00;99.90;;;;;;5072711;28;20049;-84
2022/12/14 09:18:28;;;;;;;6.20;4.22;;;10.10;99.90;;;;;;5072057;28;20042;-82
2022/12/14 09:20:55;;;;;;;4.65;3.83;;;10.10;99.90;;;;;;5072259;28;20030;-84
2022/12/14 09:23:26;;;;;;;6.20;4.57;;;10.10;99.90;;;;;;5078781;28;20127;-84
2022/12/14 09:26:11;;;;;;;4.70;3.80;;;10.10;99.90;;;;;;5092784;28;20047;-84
2022/12/14 09:28:38;;;;;;;4.07;3.65;;;10.10;99.90;;;;;;5084444;28;20050;-83
2022/12/14 09:31:10;;;;;;;5.55;3.78;;;10.10;99.90;;;;;;5072273;28;20055;-84
2022/12/14 09:33:36;;;;;;;4.78;4.07;;;10.20;99.90;;;;;;5071823;28;20055;-84
2022/12/14 09:36:07;;;;;;;4.65;3.75;;;10.20;99.90;;;;;;5071889;28;20055;-84
2022/12/14 09:38:35;;;;;;;3.97;3.42;;;10.30;99.90;;;;;;5078390;28;20024;-84
2022/12/14 09:41:06;;;;;;;4.75;4.20;;;10.30;99.90;;;;;;5092702;28;20035;-84
2022/12/14 09:43:40;;;;;;;5.63;4.35;;;10.40;99.90;;;;;;5091225;28;20074;-84
2022/12/14 09:46:09;;;;;;;4.35;3.45;;;10.40;99.90;;;;;;5081401;28;20086;-84
2022/12/14 09:48:35;;;;;;;3.80;3.50;;;10.60;99.90;;;;;;5078963;28;20127;-83
2022/12/14 09:51:01;;;;;;;4.63;3.67;;;10.60;99.90;;;;;;5092459;28;20028;-85
2022/12/14 09:53:28;;;;;;;4.78;3.58;;;10.70;99.90;;;;;;5091865;28;20030;-84
2022/12/14 09:55:55;;;;;;;4.25;3.38;;;10.60;99.90;;;;;;5092477;28;20028;-85
2022/12/14 09:58:26;;;;;;;4.40;3.58;;;10.70;99.90;;;;;;5087893;28;20044;-83
2022/12/14 10:00:52;;;;;;;6.30;4.07;;;10.70;99.90;;;;;;5071943;28;20027;-83
2022/12/14 10:03:18;;;;;;;5.30;4.18;;;10.80;99.90;;;;;;5071771;28;20028;-85
2022/12/14 10:06:16;;;;;;;4.03;3.63;;;10.90;99.90;;;;;;5071405;28;20025;-84
2022/12/14 10:08:45;;;;;;;4.05;3.65;;;11.00;99.90;;;;;;5063300;28;20036;-84
2022/12/14 10:11:29;;;;;;;4.30;3.90;;;11.00;99.90;;;;;;5070294;28;20032;-84
2022/12/14 10:13:57;;;;;;;5.00;4.10;;;11.10;99.90;;;;;;5071474;28;20025;-84
2022/12/14 10:16:35;;;;;;;4.70;4.20;;;11.10;99.90;;;;;;5071068;28;20177;-84
2022/12/14 10:19:30;;;;;;;4.97;4.30;;;11.10;99.90;;;;;;5080019;28;20032;-84
2022/12/14 10:22:17;;;;;;;5.43;4.93;;;11.10;99.90;;;;;;5091772;28;20064;-84
2022/12/14 10:25:09;;;;;;;6.68;5.38;;;11.10;99.90;;;;;;5091290;28;20032;-84
2022/12/14 10:27:37;;;;;;;6.22;4.93;;;11.20;99.90;;;;;;5091751;28;20115;-84
2022/12/14 10:30:06;;;;;;;6.30;5.43;;;11.20;99.90;;;;;;5091389;28;20028;-85
2022/12/14 10:32:35;;;;;;;4.90;4.40;;;11.30;99.90;;;;;;5091008;28;20074;-85
2022/12/14 10:35:17;;;;;;;6.53;4.80;;;11.30;99.90;;;;;;5083314;28;20020;-84
2022/12/14 10:37:50;;;;;;;6.53;5.25;;;11.40;99.90;;;;;;5058249;28;20020;-84
2022/12/14 10:40:19;;;;;;;5.55;4.60;;;11.60;99.90;;;;;;5071320;28;20028;-84
2022/12/14 10:43:22;;;;;;;5.75;4.60;;;11.70;99.90;;;;;;5071227;28;20023;-83
2022/12/14 10:46:07;;;;;;;5.20;4.70;;;12.00;99.90;;;;;;5070887;28;20031;-85
2022/12/14 10:48:54;;;;;;;8.35;4.90;;;12.10;99.90;;;;;;5069387;28;20044;-82
2022/12/14 10:51:59;;;;;;;5.97;4.70;;;12.10;99.90;;;;;;5068758;28;20055;-82
2022/12/14 10:54:37;;;;;;;4.68;4.00;;;12.40;99.90;;;;;;5069258;28;20036;-82
2022/12/14 10:57:04;;;;;;;5.38;4.53;;;12.60;99.90;;;;;;5091948;28;20024;-81
2022/12/14 10:59:37;;;;;;;5.43;4.47;;;12.60;99.90;;;;;;5089578;28;20308;-81
2022/12/14 11:02:15;;;;;;;4.68;4.05;;;12.60;99.90;;;;;;5089762;28;20020;-81
2022/12/14 11:04:55;;;;;;;4.32;3.92;;;12.70;99.90;;;;;;5089301;28;20075;-81
2022/12/14 11:07:50;;;;;;;5.13;4.13;;;12.60;99.90;;;;;;5091127;28;20078;-82
2022/12/14 11:10:22;;;;;;;4.10;3.38;;;12.60;99.90;;;;;;5090485;28;20032;-82
2022/12/14 11:13:19;;;;;;;4.90;4.05;;;12.50;99.90;;;;;;5090439;28;20067;-83
2022/12/14 11:16:10;;;;;;;4.53;3.80;;;12.50;99.90;;;;;;5088133;28;20051;-83
2022/12/14 11:18:56;;;;;;;3.10;2.80;;;12.50;99.90;;;;;;5069602;28;20086;-83
2022/12/14 11:21:37;;;;;;;4.43;3.45;;;12.60;99.90;;;;;;5069514;28;20028;-83
2022/12/14 11:24:20;;;;;;;3.37;2.90;;;12.80;99.90;;;;;;5075806;28;20032;-83
2022/12/14 11:26:51;;;;;;;3.08;2.65;;;12.80;99.90;;;;;;5090445;28;20051;-83
2022/12/14 11:29:35;;;;;;;3.50;2.90;;;12.80;99.90;;;;;;5090324;28;20036;-83
2022/12/14 11:32:14;;;;;;;2.63;2.42;;;12.90;99.90;;;;;;5090308;28;20046;-84
2022/12/14 11:34:58;;;;;;;3.00;2.55;;;12.90;99.90;;;;;;5088643;28;20027;-84
2022/12/14 11:37:29;;;;;;;2.90;2.70;;;12.90;99.90;;;;;;5090784;28;20644;-84
2022/12/14 11:40:04;;;;;;;2.95;2.65;;;12.90;99.90;;;;;;5072602;28;20145;-83
2022/12/14 11:42:34;;;;;;;2.60;2.40;;;12.90;99.90;;;;;;5081448;28;20024;-84
2022/12/14 11:45:30;;;;;;;2.03;1.90;;;13.00;99.90;;;;;;5069451;28;20079;-84
2022/12/14 11:48:14;;;;;;;2.30;2.10;;;13.10;99.90;;;;;;5069352;28;20041;-84
2022/12/14 11:50:44;;;;;;;1.67;1.58;;;13.30;99.90;;;;;;5067352;28;20035;-84
2022/12/14 11:53:16;;;;;;;2.10;1.90;;;13.30;99.90;;;;;;5067589;28;20107;-84
2022/12/14 11:56:06;;;;;;;2.30;2.10;;;13.50;99.90;;;;;;5069653;28;20064;-84
2022/12/14 11:58:36;;;;;;;2.72;2.15;;;13.70;99.90;;;;;;5069895;28;20028;-84
2022/12/14 12:01:05;;;;;;;2.08;1.88;;;13.90;99.90;;;;;;5089411;28;20046;-84
2022/12/14 12:03:34;;;;;;;3.67;1.90;;;14.00;99.90;;;;;;5088952;28;20110;-84
2022/12/14 12:06:04;;;;;;;1.77;1.67;;;14.10;99.90;;;;;;5090319;28;20024;-84
2022/12/14 12:08:34;;;;;;;2.30;2.10;;;14.20;99.90;;;;;;5089426;28;20027;-84
2022/12/14 12:11:03;;;;;;;1.70;1.60;;;14.10;99.90;;;;;;5089079;28;20139;-84
2022/12/14 12:13:31;;;;;;;1.70;1.60;;;13.80;99.90;;;;;;5090331;28;20054;-84
2022/12/14 12:16:18;;;;;;;2.17;1.60;;;13.70;99.90;;;;;;5077315;28;20093;-84
2022/12/14 12:18:50;;;;;;;1.75;1.65;;;14.00;99.90;;;;;;5070530;28;20101;-84
2022/12/14 12:21:39;;;;;;;1.73;1.60;;;14.20;99.90;;;;;;5070432;28;20048;-84
2022/12/14 12:24:22;;;;;;;3.83;1.70;;;14.10;99.90;;;;;;5070062;28;20029;-83
2022/12/14 12:27:00;;;;;;;2.70;1.75;;;14.30;99.90;;;;;;5069437;28;20063;-84
2022/12/14 12:29:33;;;;;;;3.05;1.48;;;14.40;99.90;;;;;;5068212;28;20055;-84
2022/12/14 12:32:22;;;;;;;1.05;1.00;;;14.50;99.90;;;;;;5070058;28;20021;-84
2022/12/14 12:34:53;;;;;;;1.42;1.08;;;14.20;99.90;;;;;;4988060;28;20042;-84
2022/12/14 12:37:34;;;;;;;1.50;1.23;;;14.10;99.90;;;;;;4988396;28;20556;-84
2022/12/14 12:40:09;;;;;;;1.93;1.07;;;14.10;99.90;;;;;;4988056;28;20093;-84
2022/12/14 12:43:02;;;;;;;1.70;1.30;;;14.20;99.90;;;;;;4994891;28;20014;-84
2022/12/14 12:45:48;;;;;;;1.42;1.20;;;14.30;99.90;;;;;;4995290;28;20038;-84
2022/12/14 12:48:32;;;;;;;1.70;1.10;;;14.00;99.90;;;;;;4988100;28;20517;-84
2022/12/14 12:51:05;;;;;;;2.08;1.20;;;13.90;99.90;;;;;;4988081;28;20066;-84
2022/12/14 12:53:51;;;;;;;1.73;1.20;;;13.90;99.90;;;;;;4988184;28;20121;-84
2022/12/14 12:56:25;;;;;;;1.55;0.98;;;13.90;99.90;;;;;;4987977;28;20130;-85
2022/12/14 12:58:52;;;;;;;2.53;1.15;;;14.00;99.90;;;;;;4991518;28;20042;-86
2022/12/14 13:01:39;;;;;;;2.55;1.20;;;14.10;99.90;;;;;;4991677;28;20069;-87
2022/12/14 13:04:19;;;;;;;1.80;1.08;;;14.40;99.90;;;;;;4974899;28;20089;-86
2022/12/14 13:07:01;;;;;;;2.22;0.90;;;14.50;99.90;;;;;;4991903;28;20038;-86
2022/12/14 13:09:44;;;;;;;3.40;1.20;;;14.30;99.90;;;;;;4990975;28;20109;-85
2022/12/14 13:12:24;;;;;;;2.78;1.17;;;14.20;99.90;;;;;;5040054;28;20040;-86
2022/12/14 13:14:53;;;;;;;2.17;1.20;;;14.20;99.90;;;;;;5075118;28;20019;-85
2022/12/14 13:17:49;;;;;;;1.85;1.33;;;14.20;99.90;;;;;;5072296;28;20031;-84
2022/12/14 13:20:38;;;;;;;0.95;0.80;;;14.10;99.90;;;;;;4976579;28;20201;-84
2022/12/14 13:23:09;;;;;;;1.88;1.10;;;14.10;99.90;;;;;;4965723;28;20039;-84
2022/12/14 13:26:01;;;;;;;2.47;1.15;;;14.20;99.90;;;;;;4982950;28;20042;-85
2022/12/14 13:29:06;;;;;;;1.60;1.00;;;14.20;99.90;;;;;;4986360;28;20104;-84
2022/12/14 13:32:16;;;;;;;3.15;1.20;;;14.20;99.90;;;;;;4990119;28;20109;-85
2022/12/14 13:35:11;;;;;;;1.10;1.00;;;14.20;99.90;;;;;;4924612;29;20040;-85
2022/12/14 13:38:01;;;;;;;1.98;1.05;;;14.30;99.90;;;;;;4933328;29;20135;-87